Time;durP1;ratioP1;P1;durP2;ratioP2;P2;SDS_P1;SDS_P2;PMS_P1;PMS_P2;Temp;Humidity;BMP_temperature;BMP_pressure;BME280_temperature;BME280_humidity;BME280_pressure;Samples;Min_cycle;Max_cycle;Signal;HPM_P1;HPM_P2
2021/07/06 07:39:32;;;;;;;;;;;;;;;;;;;;;
2021/07/06 07:43:07;;;;;;;;;;;;;;;;;;;;;
2021/07/06 07:50:05;;;;;;;;;4.50;2.00;;;;;17.55;60.97;100363.38;6207445;22;45195;-94
2021/07/06 07:53:41;;;;;;;;;;;;;;;;;;;;;
2021/07/06 08:00:22;;;;;;;;;;;;;;;;;;;;;
2021/07/06 08:04:00;;;;;;;;;;;;;;;;;;;;;
2021/07/06 08:07:07;;;;;;;;;;;;;;;;;;;;;
2021/07/06 08:21:37;;;;;;;;;;;;;;;;;;;;;
2021/07/06 08:28:46;;;;;;;;;;;;;;;;;;;;;
2021/07/06 08:40:18;;;;;;;;;;;;;;;;;;;;;
2021/07/06 09:48:17;;;;;;;;;;;;;;;;;;;;;
2021/07/06 09:51:15;;;;;;;;;;;;;;;;;;;;;
2021/07/06 09:54:12;;;;;;;;;;;;;;;;;;;;;
2021/07/06 10:01:26;;;;;;;;;;;;;;;;;;;;;
2021/07/06 10:05:49;;;;;;;;;;;;;;;;;;;;;
2021/07/06 10:16:04;;;;;;;;;;;;;;;;;;;;;
2021/07/06 11:12:28;;;;;;;;;3.00;2.00;;;;;20.35;54.89;100617.41;5072095;27;2048397;-95
2021/07/06 11:14:58;;;;;;;;;1.00;1.00;;;;;19.85;53.32;100539.06;5110321;27;44885;-94
2021/07/06 11:18:03;;;;;;;;;;;;;;;;;;;;;
2021/07/06 11:20:47;;;;;;;;;2.00;1.00;;;;;20.35;52.47;100579.25;5108320;27;69333;-95
2021/07/06 11:24:15;;;;;;;;;;;;;;;;;;;;;
2021/07/06 11:27:14;;;;;;;;;1.00;1.00;;;;;20.06;52.49;100528.75;5026031;28;72077;-95
2021/07/06 11:30:23;;;;;;;;;;;;;;;;;;;;;
2021/07/06 11:33:26;;;;;;;;;1.00;1.00;;;;;20.73;52.97;100604.19;5021196;28;69222;-95
2021/07/06 11:36:07;;;;;;;;;2.00;2.00;;;;;20.88;50.92;100605.25;5022661;28;46030;-96
2021/07/06 11:38:54;;;;;;;;;2.75;1.25;;;;;20.56;52.65;100535.97;5007384;28;44839;-95
2021/07/06 11:41:42;;;;;;;;;;;;;;;;;;;;;
2021/07/06 11:44:55;;;;;;;;;1.00;1.00;;;;;20.82;53.32;100532.25;5021802;28;70425;-96
2021/07/06 11:47:23;;;;;;;;;0.75;0.75;;;;;21.48;52.07;100624.09;5007562;28;47039;-95
2021/07/06 11:53:05;;;;;;;;;2.00;1.00;;;;;21.01;51.65;100536.47;5023237;28;45283;-95
2021/07/06 11:55:48;;;;;;;;;2.00;2.00;;;;;21.15;50.33;100551.31;4990898;28;44899;-93
2021/07/06 11:58:27;;;;;;;;;0.25;0.25;;;;;21.05;48.98;100548.75;5043806;28;47562;-94
2021/07/06 12:01:25;;;;;;;;;1.00;1.00;;;;;21.38;49.59;100607.06;5046579;28;44861;-96
2021/07/06 12:03:57;;;;;;;;;1.00;1.00;;;;;21.34;52.10;100634.69;5069980;27;45331;-94
2021/07/06 12:06:32;;;;;;;;;2.00;0.25;;;;;20.95;50.64;100566.34;5085955;27;45314;-92
2021/07/06 12:09:05;;;;;;;;;1.00;0.00;;;;;20.96;52.17;100546.22;5085282;27;46776;-94
2021/07/06 12:11:34;;;;;;;;;3.25;1.50;;;;;21.07;50.85;100540.38;5086334;27;45218;-93
2021/07/06 12:14:10;;;;;;;;;0.00;0.00;;;;;21.35;50.93;100568.13;5085596;27;45253;-94
2021/07/06 12:16:56;;;;;;;;;;;;;;;;;;;;;
2021/07/06 12:23:31;;;;;;;;;1.00;1.00;;;;;21.82;49.09;100631.16;4963391;28;45569;-93
2021/07/06 12:26:12;;;;;;;;;1.00;1.00;;;;;21.11;48.94;100536.28;4957012;28;44697;-95
2021/07/06 12:29:13;;;;;;;;;;;;;;;;;;;;;
2021/07/06 12:31:44;;;;;;;;;0.00;0.00;;;;;21.15;50.00;100537.66;4946024;28;74510;-93
2021/07/06 12:34:28;;;;;;;;;;;;;;;;;;;;;
2021/07/06 12:37:07;;;;;;;;;;;;;;;;;;;;;
2021/07/06 12:43:39;;;;;;;;;2.00;1.00;;;;;21.96;49.48;100637.78;4948337;28;45256;-93
2021/07/06 12:46:48;;;;;;;;;2.00;1.50;;;;;21.44;47.12;100568.09;4977418;28;45597;-93
2021/07/06 12:49:26;;;;;;;;;0.75;0.75;;;;;21.69;48.55;100622.69;4969252;28;44742;-93
2021/07/06 12:52:06;;;;;;;;;4.50;2.00;;;;;21.17;47.66;100564.75;4974142;28;44965;-92
2021/07/06 12:54:39;;;;;;;;;3.75;2.00;;;;;21.12;48.24;100569.88;4981845;28;46847;-93
2021/07/06 12:57:08;;;;;;;;;2.00;2.00;;;;;21.39;49.25;100608.75;4999398;28;45427;-92
2021/07/06 12:59:40;;;;;;;;;1.75;1.75;;;;;21.55;49.41;100638.75;5032980;28;44756;-93
2021/07/06 13:02:22;;;;;;;;;1.00;1.00;;;;;21.68;49.61;100665.56;5062838;28;44749;-93
2021/07/06 13:05:03;;;;;;;;;;;;;;;;;;;;;
2021/07/06 13:07:42;;;;;;;;;;;;;;;;;;;;;
2021/07/06 13:11:10;;;;;;;;;;;;;;;;;;;;;
2021/07/06 13:54:29;;;;;;;;;1.00;1.00;;;;;21.63;47.77;100627.84;5066483;22;45177;-95
2021/07/06 13:57:12;;;;;;;;;;;;;;;;;;;;;
2021/07/06 14:03:00;;;;;;;;;;;;;;;;;;;;;
2021/07/06 14:12:41;;;;;;;;;1.00;1.00;;;;;21.43;47.70;100619.16;4927874;28;45420;-95
2021/07/06 14:15:49;;;;;;;;;4.25;2.00;;;;;21.78;47.17;100674.41;4915057;28;46901;-94
2021/07/06 14:22:16;;;;;;;;;;;;;;;;;;;;;
2021/07/06 14:24:51;;;;;;;;;1.00;1.00;;;;;21.82;45.74;100644.84;4956398;28;69269;-94
2021/07/06 14:27:29;;;;;;;;;;;;;;;;;;;;;
2021/07/06 14:29:58;;;;;;;;;2.00;1.00;;;;;21.59;47.18;100612.78;4939922;28;72131;-94
2021/07/06 14:32:37;;;;;;;;;;;;;;;;;;;;;
2021/07/06 14:35:15;;;;;;;;;2.00;0.50;;;;;22.04;47.01;100676.00;4925617;28;70165;-94
2021/07/06 14:38:40;;;;;;;;;;;;;;;;;;;;;
2021/07/06 14:41:06;;;;;;;;;1.25;1.00;;;;;21.75;46.26;100628.28;4925747;28;72141;-96
2021/07/06 14:43:34;;;;;;;;;5.25;5.25;;;;;21.78;46.09;100616.19;4909139;28;45299;-95
2021/07/06 14:46:16;;;;;;;;;2.00;2.00;;;;;22.15;45.77;100671.22;4953176;28;45397;-94
2021/07/06 14:48:52;;;;;;;;;2.00;2.00;;;;;21.78;42.42;100622.47;4991352;28;47315;-94
2021/07/06 14:51:25;;;;;;;;;2.75;1.75;;;;;21.68;45.68;100608.19;4990024;28;44921;-94
2021/07/06 14:54:07;;;;;;;;;1.50;1.50;;;;;21.75;44.81;100625.56;4994526;28;45524;-94
2021/07/06 14:56:33;;;;;;;;;3.50;2.00;;;;;22.17;45.62;100675.47;5009467;28;45244;-93
2021/07/06 15:02:13;;;;;;;;;2.00;1.00;;;;;22.21;45.93;100679.53;5032027;28;44907;-93
2021/07/06 15:04:51;;;;;;;;;2.25;2.00;;;;;21.81;44.94;100607.63;5020686;28;44988;-93
2021/07/06 15:07:19;;;;;;;;;2.00;2.00;;;;;21.86;44.98;100624.31;5008792;28;45242;-94
2021/07/06 15:09:47;;;;;;;;;1.50;1.50;;;;;;;;5005101;28;45438;-95
2021/07/06 15:12:38;;;;;;;;;;;;;;;;;;;;;
2021/07/06 15:15:07;;;;;;;;;1.75;1.00;;;;;22.09;45.07;100653.63;5022159;28;67837;-94
2021/07/06 15:17:45;;;;;;;;;1.00;1.00;;;;;21.85;44.65;100617.16;5004807;28;45192;-94
2021/07/06 15:20:11;;;;;;;;;1.75;1.00;;;;;21.93;45.43;100619.00;5004621;28;47636;-94
2021/07/06 15:23:00;;;;;;;;;;;;;;;;;;;;;
2021/07/06 15:25:27;;;;;;;;;1.00;0.25;;;;;22.14;44.30;100659.41;5021357;28;68012;-94
2021/07/06 15:28:12;;;;;;;;;;;;;;;;;;;;;
2021/07/06 15:30:41;;;;;;;;;0.25;0.00;;;;;21.89;44.50;100634.06;5019575;28;75266;-95
2021/07/06 15:33:28;;;;;;;;;0.75;0.75;;;;;21.87;44.78;100636.13;5003728;28;45279;-93
2021/07/06 15:36:08;;;;;;;;;1.00;1.00;;;;;21.79;45.25;100626.91;5004451;28;45377;-95
2021/07/06 15:38:46;;;;;;;;;2.50;1.00;;;;;21.76;45.21;100632.72;5003887;28;45227;-95
2021/07/06 15:41:23;;;;;;;;;;;;;;;;;;;;;
2021/07/06 15:44:06;;;;;;;;;1.00;1.00;;;;;21.76;43.17;100640.09;5020875;28;72925;-94
2021/07/06 15:46:47;;;;;;;;;;;;;;;;;;;;;
2021/07/06 15:49:13;;;;;;;;;2.00;2.00;;;;;21.76;44.29;100630.00;5020358;28;70157;-95
2021/07/06 15:51:39;;;;;;;;;1.75;1.00;;;;;21.82;45.10;100631.16;5000969;28;47150;-96
2021/07/06 15:54:08;;;;;;;;;2.00;2.00;;;;;21.82;44.25;100631.16;5002573;28;45267;-92
2021/07/06 15:56:44;;;;;;;;;;;;;;;;;;;;;
2021/07/06 15:59:12;;;;;;;;;3.00;0.75;;;;;22.05;43.60;100657.75;5023377;28;69979;-96
2021/07/06 16:01:39;;;;;;;;;1.00;1.00;;;;;22.02;44.68;100652.63;5004657;28;46336;-95
2021/07/06 16:04:21;;;;;;;;;4.00;1.25;;;;;22.34;42.76;100708.19;5017029;28;45258;-96
2021/07/06 16:06:59;;;;;;;;;3.00;3.00;;;;;22.01;44.30;100656.38;5025724;28;45401;-94
2021/07/06 16:09:30;;;;;;;;;3.00;2.00;;;;;21.86;44.21;100627.06;5024796;28;45337;-94
2021/07/06 16:11:56;;;;;;;;;2.00;2.00;;;;;21.87;44.35;100619.72;5026525;28;47277;-94
2021/07/06 16:14:29;;;;;;;;;1.50;1.25;;;;;21.84;44.43;100612.72;5026444;28;45357;-96
2021/07/06 16:17:19;;;;;;;;;2.00;1.00;;;;;21.96;44.15;100630.44;5025292;28;45415;-95
2021/07/06 16:20:05;;;;;;;;;;;;;;;;;;;;;
2021/07/06 16:22:31;;;;;;;;;2.00;2.00;;;;;21.87;42.92;100609.63;5043129;28;74398;-93
2021/07/06 16:24:57;;;;;;;;;1.00;1.00;;;;;21.91;44.30;100621.94;5026228;28;45404;-94
2021/07/06 16:27:31;;;;;;;;;1.00;1.00;;;;;22.40;44.30;100691.94;5029807;28;45425;-95
2021/07/06 16:30:06;;;;;;;;;2.00;2.00;;;;;22.42;45.01;100683.56;5030455;28;45527;-94
2021/07/06 16:32:39;;;;;;;;;2.00;2.00;;;;;21.90;44.73;100605.69;5030169;28;47230;-94
2021/07/06 16:35:13;;;;;;;;;2.00;2.00;;;;;21.88;44.76;100605.88;5031247;28;45398;-96
2021/07/06 16:37:43;;;;;;;;;1.00;1.00;;;;;22.02;42.88;100645.28;5032158;28;45207;-95
2021/07/06 16:40:14;;;;;;;;;1.75;1.75;;;;;21.75;43.66;100602.84;5022624;28;45499;-94
2021/07/06 16:42:46;;;;;;;;;2.25;2.25;;;;;21.75;43.07;100597.41;5009114;28;47037;-93
2021/07/06 16:45:20;;;;;;;;;2.00;2.00;;;;;21.79;43.29;100618.72;5009995;28;45280;-95
2021/07/06 16:47:52;;;;;;;;;1.00;1.00;;;;;21.82;43.27;100606.56;5010051;28;45450;-95
2021/07/06 16:50:23;;;;;;;;;3.25;2.00;;;;;22.26;43.38;100685.31;5010049;28;44912;-95
2021/07/06 17:43:11;;;;;;;;;;;;;;;;;;;;;
2021/07/06 17:59:47;;;;;;;;;2.25;1.00;;;;;21.85;43.59;100674.56;4882766;29;44950;-95
2021/07/06 18:05:28;;;;;;;;;;;;;;;;;;;;;
2021/07/06 18:07:56;;;;;;;;;27.00;25.75;;;;;21.56;44.51;100650.53;4887978;29;68921;-94
2021/07/06 18:10:44;;;;;;;;;;;;;;;;;;;;;
2021/07/06 18:14:00;;;;;;;;;5.00;4.25;;;;;21.70;44.25;100676.28;4912718;28;73976;-95
2021/07/06 18:17:03;;;;;;;;;;;;;;;;;;;;;
2021/07/06 18:20:05;;;;;;;;;8.00;6.00;;;;;21.51;45.31;100648.34;4921476;28;69327;-95
2021/07/06 18:22:56;;;;;;;;;;;;;;;;;;;;;
2021/07/06 18:26:00;;;;;;;;;3.25;2.50;;;;;21.82;45.34;100700.34;4927293;28;74000;-94
2021/07/06 18:29:13;;;;;;;;;;;;;;;;;;;;;
2021/07/06 18:32:10;;;;;;;;;;;;;;;;;;;;;
2021/07/06 18:35:01;;;;;;;;;4.75;3.75;;;;;22.00;46.52;100731.22;5006748;28;75289;-95
2021/07/06 18:37:45;;;;;;;;;5.00;3.50;;;;;21.50;46.89;100646.63;5009399;28;45358;-95
2021/07/06 18:40:54;;;;;;;;;;;;;;;;;;;;;
2021/07/06 18:44:01;;;;;;;;;;;;;;;;;;;;;
2021/07/06 18:47:09;;;;;;;;;;;;;;;;;;;;;
2021/07/06 18:49:40;;;;;;;;;4.25;4.00;;;;;21.93;47.46;100748.34;5009747;28;73607;-94
2021/07/06 18:52:10;;;;;;;;;3.75;3.75;;;;;21.32;47.60;100647.66;5009552;28;44778;-94
2021/07/06 18:55:03;;;;;;;;;4.00;4.00;;;;;21.40;46.95;100668.66;5009045;28;45352;-95
2021/07/06 18:58:38;;;;;;;;;;;;;;;;;;;;;
2021/07/06 19:01:16;;;;;;;;;;;;;;;;;;;;;
2021/07/06 19:03:56;;;;;;;;;;;;;;;;;;;;;
2021/07/06 19:06:31;;;;;;;;;4.00;2.00;;;;;21.56;47.77;100708.75;5008639;28;69374;-94
2021/07/06 19:09:02;;;;;;;;;2.75;2.75;;;;;21.66;47.61;100725.84;4999801;28;46762;-93
2021/07/06 19:11:53;;;;;;;;;;;;;;;;;;;;;
2021/07/06 19:14:52;;;;;;;;;;;;;;;;;;;;;
2021/07/06 19:17:20;;;;;;;;;3.25;3.25;;;;;21.50;46.42;100714.91;5011785;28;68687;-94
2021/07/06 19:19:51;;;;;;;;;2.75;2.25;;;;;21.75;46.74;100759.44;5007689;28;47015;-95
2021/07/06 19:22:25;;;;;;;;;4.75;2.00;;;;;21.32;45.80;100685.03;5009775;28;45487;-95
2021/07/06 19:24:51;;;;;;;;;1.00;1.00;;;;;21.76;46.35;100761.16;5009658;28;45288;-94
2021/07/06 19:27:29;;;;;;;;;2.00;2.00;;;;;21.23;46.56;100677.88;5010500;28;45512;-94
2021/07/06 19:33:06;;;;;;;;;4.00;2.00;;;;;21.58;46.68;100744.94;5029350;28;45156;-94
2021/07/06 19:35:45;;;;;;;;;2.00;2.00;;;;;21.81;46.85;100798.94;5013264;28;45268;-95
2021/07/06 19:38:16;;;;;;;;;2.50;1.75;;;;;21.47;46.45;100739.84;5013263;28;45417;-96
2021/07/06 19:40:44;;;;;;;;;5.00;3.00;;;;;21.79;47.09;100793.63;5012227;28;48092;-93
2021/07/06 19:43:22;;;;;;;;;2.00;2.00;;;;;21.30;46.60;100715.25;5013761;28;45414;-94
2021/07/06 19:45:52;;;;;;;;;4.00;3.00;;;;;21.25;47.47;100709.44;5013647;28;45350;-95
2021/07/06 19:48:21;;;;;;;;;2.75;2.00;;;;;21.50;48.08;100762.19;5014660;28;45438;-94
2021/07/06 19:51:00;;;;;;;;;2.50;2.50;;;;;21.57;47.82;100770.53;5013405;28;47628;-94
2021/07/06 19:53:42;;;;;;;;;;;;;;;;;;;;;
2021/07/06 19:56:14;;;;;;;;;3.50;3.00;;;;;21.25;47.70;100725.00;5030958;28;68047;-95
2021/07/06 19:58:39;;;;;;;;;4.00;3.00;;;;;21.12;47.50;100709.97;5014061;28;45378;-94
2021/07/06 20:01:15;;;;;;;;;3.50;3.00;;;;;21.56;47.66;100771.56;5013326;28;46950;-93
2021/07/06 20:03:45;;;;;;;;;2.00;2.00;;;;;21.14;48.14;100720.72;4994338;28;45345;-93
2021/07/06 20:06:28;;;;;;;;;;;;;;;;;;;;;
2021/07/06 20:09:30;;;;;;;;;3.00;2.50;;;;;21.20;47.19;100730.97;5030677;28;69342;-96
2021/07/06 20:11:58;;;;;;;;;2.00;2.00;;;;;21.19;48.21;100740.19;5013827;28;46931;-93
2021/07/06 20:14:30;;;;;;;;;3.00;3.00;;;;;21.15;47.40;100738.81;5014694;28;45494;-94
2021/07/06 20:17:01;;;;;;;;;2.25;2.25;;;;;21.11;48.43;100745.63;5013539;28;45414;-94
2021/07/06 20:19:37;;;;;;;;;4.50;2.25;;;;;21.13;47.92;100749.03;5013884;28;44767;-94
2021/07/06 20:22:15;;;;;;;;;2.75;2.75;;;;;21.40;48.30;100797.03;5008363;28;47170;-96
2021/07/06 20:24:51;;;;;;;;;;;;;;;;;;;;;
2021/07/06 20:27:29;;;;;;;;;1.25;1.25;;;;;21.35;48.07;100803.00;5026942;28;68061;-95
2021/07/06 20:30:06;;;;;;;;;1.25;1.25;;;;;21.15;48.48;100766.97;5010035;28;45489;-96
2021/07/06 20:32:34;;;;;;;;;5.00;4.00;;;;;21.32;48.43;100803.31;5010163;28;46917;-96
2021/07/06 20:35:01;;;;;;;;;2.25;2.25;;;;;20.95;48.73;100763.69;5009304;28;45572;-96
2021/07/06 20:37:28;;;;;;;;;1.25;1.00;;;;;21.47;48.18;100857.28;5009133;28;45464;-95
2021/07/06 20:40:24;;;;;;;;;;;;;;;;;;;;;
2021/07/06 20:42:53;;;;;;;;;3.00;2.00;;;;;20.89;48.98;100764.34;5004420;28;73754;-96
2021/07/06 20:45:21;;;;;;;;;1.50;1.50;;;;;20.88;48.78;100770.84;4988023;28;45649;-95
2021/07/06 20:47:47;;;;;;;;;3.50;2.25;;;;;20.88;49.13;100777.16;4987724;28;45288;-95
2021/07/06 20:50:15;;;;;;;;;2.00;2.00;;;;;20.85;49.47;100774.75;4988902;28;45265;-96
2021/07/06 20:52:44;;;;;;;;;4.00;3.00;;;;;21.13;49.38;100826.34;5007857;28;46785;-96
2021/07/06 20:55:10;;;;;;;;;4.25;3.25;;;;;20.99;49.84;100822.38;5007670;28;45370;-95
2021/07/06 20:57:39;;;;;;;;;2.25;2.00;;;;;20.78;50.06;100786.50;5008295;28;45380;-96
2021/07/06 21:00:15;;;;;;;;;2.00;2.00;;;;;20.68;49.20;100775.69;4991065;28;45233;-94
2021/07/06 21:02:46;;;;;;;;;3.00;3.00;;;;;20.72;49.07;100799.75;4989113;28;47014;-95
2021/07/06 21:05:14;;;;;;;;;2.50;2.50;;;;;20.64;49.67;100780.63;4990115;28;45260;-96
2021/07/06 21:07:41;;;;;;;;;3.50;3.00;;;;;20.66;49.84;100794.09;5008612;28;45678;-96
2021/07/06 21:10:09;;;;;;;;;2.00;2.00;;;;;20.59;49.77;100791.19;5007024;28;45231;-96
2021/07/06 21:12:35;;;;;;;;;1.50;1.50;;;;;20.58;49.63;100790.34;5006706;28;46881;-95
2021/07/06 21:15:03;;;;;;;;;2.75;2.75;;;;;20.59;49.84;100792.03;5006957;28;45632;-95
2021/07/06 21:17:29;;;;;;;;;3.50;2.75;;;;;20.47;50.07;100787.03;5005663;28;45276;-95
2021/07/06 21:19:55;;;;;;;;;2.75;2.75;;;;;20.74;50.56;100822.28;5007109;28;44766;-95
2021/07/06 21:22:23;;;;;;;;;3.00;2.75;;;;;20.54;50.43;100796.25;5006153;28;47184;-95
2021/07/06 21:24:49;;;;;;;;;2.00;2.00;;;;;20.52;50.71;100801.06;5007574;28;45377;-96
2021/07/06 21:27:17;;;;;;;;;3.00;1.75;;;;;20.49;50.34;100804.09;5007685;28;45273;-95
2021/07/06 21:29:46;;;;;;;;;2.25;2.00;;;;;20.60;50.22;100831.06;5005989;28;45282;-95
2021/07/06 21:32:12;;;;;;;;;3.25;3.25;;;;;20.46;50.29;100807.97;5006022;28;47021;-96
2021/07/06 21:34:40;;;;;;;;;1.75;1.75;;;;;20.43;50.38;100808.34;5006691;28;45220;-96
2021/07/06 21:37:08;;;;;;;;;3.25;2.00;;;;;20.38;50.70;100806.09;5006474;28;44759;-96
2021/07/06 21:39:37;;;;;;;;;3.50;2.50;;;;;20.40;50.23;100812.22;5007069;28;45201;-94
2021/07/06 21:42:03;;;;;;;;;2.25;2.00;;;;;20.63;50.49;100871.69;5022535;28;47382;-95
2021/07/06 21:44:29;;;;;;;;;5.00;2.25;;;;;20.48;51.05;100855.03;5029885;28;45400;-95
2021/07/06 21:46:54;;;;;;;;;1.75;1.75;;;;;20.34;50.52;100833.84;5027583;28;44755;-95
2021/07/06 21:49:20;;;;;;;;;2.00;2.00;;;;;20.44;50.71;100854.53;5035645;28;45421;-96
2021/07/06 21:51:49;;;;;;;;;4.00;2.75;;;;;20.25;51.10;100835.66;5041134;28;46663;-95
2021/07/06 21:54:14;;;;;;;;;3.00;1.25;;;;;20.29;51.73;100837.91;5046932;28;44688;-93
2021/07/06 21:56:45;;;;;;;;;3.00;2.50;;;;;20.22;51.08;100834.13;5044736;28;45376;-94
2021/07/06 21:59:11;;;;;;;;;2.00;2.00;;;;;20.17;51.21;100831.03;5005478;28;45378;-93
2021/07/06 22:01:39;;;;;;;;;4.25;2.50;;;;;20.67;51.22;100919.44;5006371;28;47105;-95
2021/07/06 22:04:14;;;;;;;;;2.00;2.00;;;;;20.10;50.89;100825.34;5006222;28;45156;-95
2021/07/06 22:06:40;;;;;;;;;4.50;3.00;;;;;20.12;51.16;100833.38;5009071;28;45416;-96
2021/07/06 22:09:06;;;;;;;;;2.25;2.25;;;;;20.04;51.27;100833.31;5008250;28;45204;-95
2021/07/06 22:11:32;;;;;;;;;3.50;3.50;;;;;20.05;51.50;100827.72;5007746;28;46802;-93
2021/07/06 22:13:57;;;;;;;;;2.00;2.00;;;;;20.11;51.65;100853.47;5019551;28;45393;-95
2021/07/06 22:16:23;;;;;;;;;1.50;1.00;;;;;19.85;52.05;100819.69;5026495;28;45567;-96
2021/07/06 22:18:51;;;;;;;;;2.00;2.00;;;;;19.97;51.85;100836.69;5023130;28;45271;-94
2021/07/06 22:21:19;;;;;;;;;1.50;1.50;;;;;20.17;52.26;100861.03;5002935;28;46993;-94
2021/07/06 22:23:46;;;;;;;;;3.00;2.00;;;;;19.96;52.03;100836.81;5005354;28;45495;-96
2021/07/06 22:26:15;;;;;;;;;2.50;2.50;;;;;20.02;52.69;100849.81;5008102;28;45475;-95
2021/07/06 22:28:41;;;;;;;;;4.25;2.25;;;;;20.24;52.88;100885.78;5010189;28;45458;-95
2021/07/06 22:31:07;;;;;;;;;2.00;2.00;;;;;20.34;52.90;100904.72;5013463;28;47102;-95
2021/07/06 22:33:32;;;;;;;;;3.00;3.00;;;;;19.92;52.33;100847.19;5029095;28;44733;-92
2021/07/06 22:35:58;;;;;;;;;2.00;2.00;;;;;19.81;52.39;100851.03;5029674;28;44723;-96
2021/07/06 22:38:27;;;;;;;;;2.00;2.00;;;;;19.94;52.03;100869.69;5020426;28;44953;-96
2021/07/06 22:40:52;;;;;;;;;2.25;2.25;;;;;19.98;52.79;100881.13;5005017;28;46972;-95
2021/07/06 22:43:18;;;;;;;;;2.25;2.25;;;;;19.85;52.78;100862.44;5003514;28;45422;-96
2021/07/06 22:45:44;;;;;;;;;2.75;2.00;;;;;20.13;52.58;100906.78;5004623;28;45590;-96
2021/07/06 22:48:10;;;;;;;;;2.50;0.75;;;;;19.82;53.15;100885.41;5003737;28;45497;-94
2021/07/06 22:50:35;;;;;;;;;2.25;2.25;;;;;20.12;52.55;100924.16;5003499;28;46731;-96
2021/07/06 22:53:01;;;;;;;;;4.00;3.00;;;;;19.78;53.96;100885.88;5005156;28;45566;-94
2021/07/06 22:55:26;;;;;;;;;4.00;4.00;;;;;19.92;53.48;100904.41;5004038;28;45395;-95
2021/07/06 22:57:52;;;;;;;;;2.75;2.75;;;;;19.54;53.89;100850.09;5003948;28;45418;-95
2021/07/06 23:00:19;;;;;;;;;4.50;4.00;;;;;19.64;54.03;100870.94;5002855;28;47220;-96
2021/07/06 23:02:44;;;;;;;;;2.00;2.00;;;;;19.84;54.00;100907.91;5003033;28;45485;-95
2021/07/06 23:05:14;;;;;;;;;3.25;3.25;;;;;19.51;54.28;100857.72;5003636;28;45232;-95
2021/07/06 23:07:39;;;;;;;;;4.25;4.00;;;;;19.51;54.83;100853.13;5001233;28;45522;-95
2021/07/06 23:10:08;;;;;;;;;3.75;3.75;;;;;19.82;54.41;100912.63;5002047;28;47113;-95
2021/07/06 23:12:35;;;;;;;;;3.50;3.50;;;;;19.98;54.25;100947.41;5002329;28;45579;-96
2021/07/06 23:15:03;;;;;;;;;2.50;2.25;;;;;19.41;53.95;100868.69;5002963;28;45276;-96
2021/07/06 23:17:29;;;;;;;;;4.75;2.00;;;;;19.35;54.78;100863.88;5003340;28;45500;-94
2021/07/06 23:19:55;;;;;;;;;6.00;3.00;;;;;19.35;55.60;100864.72;5003194;28;47667;-96
2021/07/06 23:22:23;;;;;;;;;2.00;2.00;;;;;19.39;54.99;100882.47;5002540;28;45183;-96
2021/07/06 23:24:49;;;;;;;;;1.75;1.75;;;;;19.32;55.04;100878.63;5002093;28;45422;-96
2021/07/06 23:27:15;;;;;;;;;3.75;3.00;;;;;19.71;55.05;100940.13;5002117;28;45315;-95
2021/07/06 23:29:41;;;;;;;;;3.25;3.25;;;;;19.14;54.93;100864.16;5002512;28;47138;-96
2021/07/06 23:32:06;;;;;;;;;3.25;3.00;;;;;19.39;54.81;100906.97;5002046;28;45252;-96
2021/07/06 23:34:32;;;;;;;;;2.25;2.25;;;;;19.48;55.52;100940.59;5001372;28;45462;-95
2021/07/06 23:36:58;;;;;;;;;3.50;2.00;;;;;19.18;55.29;100884.59;5000546;28;45390;-96
2021/07/06 23:39:23;;;;;;;;;2.00;2.00;;;;;19.40;56.22;100921.41;5000373;28;46733;-94
2021/07/06 23:41:49;;;;;;;;;3.00;3.00;;;;;19.38;54.99;100918.00;5000856;28;45484;-95
2021/07/06 23:44:15;;;;;;;;;5.25;4.00;;;;;19.31;56.17;100920.50;5000942;28;45421;-95
2021/07/06 23:46:41;;;;;;;;;3.75;3.00;;;;;19.03;55.01;100876.09;5001371;28;45320;-96
2021/07/06 23:49:07;;;;;;;;;2.00;2.00;;;;;19.34;55.27;100931.06;5001445;28;46895;-96
2021/07/06 23:51:32;;;;;;;;;3.75;3.75;;;;;19.57;56.28;100982.38;5000776;28;45351;-95
2021/07/06 23:53:58;;;;;;;;;3.00;3.00;;;;;19.03;56.27;100897.88;5001109;28;45304;-94
2021/07/06 23:56:24;;;;;;;;;4.00;3.00;;;;;19.04;56.56;100903.16;5001184;28;45357;-96
2021/07/06 23:58:49;;;;;;;;;2.75;2.25;;;;;19.60;56.87;100978.47;5001090;28;46737;-96
